logo
Search for airport 
image banner adimage banner adimage banner ad
image banner ad

CST3 - St-Lazare

Located in Montreal, Canada

ICAO - CST3, IATA -

Data provided by Airmate  

General information

Coordinates: N45°23'33" W74°8'3"
Elevation is 175 feet MSL.
Magnetic variation is -15° East
View others Airports in Quebec

Operational data

Special qualification required
Current time UTC:
Current local time:
Weather at : CYUL - Pierre-Elliott-Trudeau Intl ( 32 km )
METAR: CYUL 021700Z VRB02KT 30SM BKN260 22/10 A3021 RMK CI5 SLP234 DENSITY ALT 700FT
TAF: TAF CYUL 021441Z 0215/0312 VRB03KT P6SM SCT250 BECMG 0215/0217 17005KT FM021800 21008KT P6SM FEW150 FM030300 20008KT P6SM SCT050 FM030600 23010KT P6SM FEW020 RMK NXT FCST BY 021800Z
View NOTAMs / SUP AIP / TFR affecting this airport [VIEW]
Communications frequencies: [VIEW]

Runways:

RWY identifierQFULength (ft)Width (ft)SurfaceLDA (ft)
02258550ASP+GRS
20258550ASP+GRS
08227565GRASS
26227565GRASS

Airport contact information

Address: Montreal Canada

Satellite view of CST3